Time;durP1;ratioP1;P1;durP2;ratioP2;P2;SDS_P1;SDS_P2;PMS_P1;PMS_P2;Temp;Humidity;BMP_temperature;BMP_pressure;BME280_temperature;BME280_humidity;BME280_pressure;Samples;Min_cycle;Max_cycle;Signal;HPM_P1;HPM_P2
2022/03/27 00:00:35;;;;;;;17.70;5.93;;;;;;;;;;5033317;28;20551;-66
2022/03/27 00:03:01;;;;;;;12.35;5.45;;;;;;;;;;5033724;28;20393;-65
2022/03/27 00:05:27;;;;;;;15.02;6.03;;;;;;;;;;5033705;28;20111;-65
2022/03/27 00:07:52;;;;;;;14.23;5.45;;;;;;;;;;5033801;28;20205;-65
2022/03/27 00:10:18;;;;;;;12.30;5.50;;;;;;;;;;5033657;28;20018;-65
2022/03/27 00:12:43;;;;;;;16.10;5.78;;;;;;;;;;5033671;28;20017;-65
2022/03/27 00:15:09;;;;;;;15.00;5.35;;;;;;;;;;5033479;28;20093;-65
2022/03/27 00:17:35;;;;;;;11.30;5.75;;;;;;;;;;5033474;28;20041;-65
2022/03/27 00:20:08;;;;;;;15.02;5.88;;;;;;;;;;5033258;28;20061;-65
2022/03/27 00:22:34;;;;;;;12.57;4.93;;;;;;;;;;5033521;28;20030;-66
2022/03/27 00:25:00;;;;;;;11.10;5.50;;;;;;;;;;5033309;28;20416;-65
2022/03/27 00:27:26;;;;;;;10.02;4.80;;;;;;;;;;5033233;28;20033;-65
2022/03/27 00:29:52;;;;;;;12.93;5.53;;;;;;;;;;5033037;28;20168;-65
2022/03/27 00:32:18;;;;;;;12.52;5.30;;;;;;;;;;5033095;28;20037;-65
2022/03/27 00:34:43;;;;;;;12.82;5.40;;;;;;;;;;5033274;28;20025;-66
2022/03/27 00:37:09;;;;;;;11.60;4.88;;;;;;;;;;5033107;28;20030;-65
2022/03/27 00:39:34;;;;;;;11.05;5.03;;;;;;;;;;5033507;28;20021;-65
2022/03/27 00:41:59;;;;;;;15.13;4.70;;;;;;;;;;5032374;28;20465;-65
2022/03/27 00:44:25;;;;;;;12.02;5.30;;;;;;;;;;5033357;28;20362;-65
2022/03/27 00:46:51;;;;;;;12.13;5.00;;;;;;;;;;5032527;28;20032;-65
2022/03/27 00:49:16;;;;;;;10.60;4.40;;;;;;;;;;5032968;28;20053;-65
2022/03/27 00:51:42;;;;;;;11.05;4.70;;;;;;;;;;5032814;28;20025;-66
2022/03/27 00:54:08;;;;;;;10.80;4.75;;;;;;;;;;5032846;28;20390;-65
2022/03/27 00:56:33;;;;;;;10.85;4.38;;;;;;;;;;5032551;28;20049;-65
2022/03/27 00:58:59;;;;;;;11.57;4.57;;;;;;;;;;5032607;28;20032;-65
2022/03/27 01:01:39;;;;;;;9.90;4.10;;;;;;;;;;5030889;28;20026;-65
2022/03/27 01:04:06;;;;;;;11.52;4.70;;;;;;;;;;5032698;28;20079;-65
2022/03/27 01:06:32;;;;;;;9.52;4.55;;;;;;;;;;5032130;28;20131;-67
2022/03/27 01:11:44;;;;;;;9.00;4.32;;;;;;;;;;5032453;28;20082;-65
2022/03/27 01:14:09;;;;;;;10.45;4.65;;;;;;;;;;5032572;28;20104;-69
2022/03/27 01:16:43;;;;;;;8.27;4.80;;;;;;;;;;5032118;28;20441;-65
2022/03/27 01:19:14;;;;;;;12.30;5.43;;;;;;;;;;5032843;28;20037;-65
2022/03/27 01:21:45;;;;;;;14.55;5.93;;;;;;;;;;5032242;28;20489;-65
2022/03/27 01:24:12;;;;;;;12.75;5.45;;;;;;;;;;5032649;28;20040;-65
2022/03/27 01:26:38;;;;;;;12.77;5.63;;;;;;;;;;5032089;28;20029;-65
2022/03/27 01:29:05;;;;;;;12.88;5.60;;;;;;;;;;5032674;28;20032;-66
2022/03/27 01:31:31;;;;;;;11.90;4.93;;;;;;;;;;5031928;28;20033;-65
2022/03/27 01:33:56;;;;;;;15.15;5.35;;;;;;;;;;5031963;28;20476;-65
2022/03/27 01:36:26;;;;;;;12.90;5.30;;;;;;;;;;5032018;28;20033;-65
2022/03/27 01:38:54;;;;;;;10.60;5.85;;;;;;;;;;5032481;28;20018;-65
2022/03/27 01:41:20;;;;;;;11.07;5.45;;;;;;;;;;5031733;28;20177;-65
2022/03/27 01:43:46;;;;;;;9.15;5.13;;;;;;;;;;5031924;28;20477;-65
2022/03/27 01:46:12;;;;;;;13.55;5.25;;;;;;;;;;5031745;28;20049;-66
2022/03/27 01:48:37;;;;;;;11.65;5.35;;;;;;;;;;5031818;28;20029;-65
2022/03/27 01:51:03;;;;;;;12.85;4.90;;;;;;;;;;5031614;28;20112;-65
2022/03/27 01:53:29;;;;;;;8.40;5.10;;;;;;;;;;5031591;28;20060;-65
2022/03/27 01:55:54;;;;;;;10.73;4.93;;;;;;;;;;5031675;28;20443;-65
2022/03/27 01:58:20;;;;;;;14.60;4.90;;;;;;;;;;5031669;28;20264;-65
2022/03/27 02:00:45;;;;;;;10.75;4.68;;;;;;;;;;5031557;28;20032;-65
2022/03/27 02:03:11;;;;;;;9.23;4.53;;;;;;;;;;5031245;28;20488;-65
2022/03/27 02:05:37;;;;;;;10.55;4.50;;;;;;;;;;5031451;28;20521;-65
2022/03/27 02:08:03;;;;;;;9.77;4.30;;;;;;;;;;5031183;28;20084;-65
2022/03/27 02:10:29;;;;;;;10.05;4.60;;;;;;;;;;5031378;28;20030;-65
2022/03/27 02:12:54;;;;;;;11.65;4.40;;;;;;;;;;5031326;28;20040;-65
2022/03/27 02:15:20;;;;;;;8.68;4.28;;;;;;;;;;5031523;28;20032;-65
2022/03/27 02:17:46;;;;;;;8.38;4.18;;;;;;;;;;5030781;28;20048;-65
2022/03/27 02:20:12;;;;;;;10.52;4.25;;;;;;;;;;5031309;28;20530;-65
2022/03/27 02:22:37;;;;;;;8.32;4.18;;;;;;;;;;5030901;28;20101;-65
2022/03/27 02:25:04;;;;;;;7.70;4.32;;;;;;;;;;5031199;28;20178;-65
2022/03/27 02:27:30;;;;;;;11.48;4.47;;;;;;;;;;5030855;28;20366;-65
2022/03/27 02:29:55;;;;;;;9.95;4.40;;;;;;;;;;5030958;28;20036;-65
2022/03/27 02:32:21;;;;;;;9.35;4.40;;;;;;;;;;5030875;28;20495;-65
2022/03/27 02:34:46;;;;;;;10.00;4.50;;;;;;;;;;5031204;28;20025;-65
2022/03/27 02:37:13;;;;;;;12.32;4.40;;;;;;;;;;5030695;28;20366;-65
2022/03/27 02:39:39;;;;;;;9.15;4.40;;;;;;;;;;5031226;28;20079;-65
2022/03/27 02:42:05;;;;;;;8.45;4.35;;;;;;;;;;5030477;28;20029;-65
2022/03/27 02:44:31;;;;;;;8.75;4.40;;;;;;;;;;5030849;28;20388;-67
2022/03/27 02:46:56;;;;;;;9.55;4.57;;;;;;;;;;5030511;28;20100;-65
2022/03/27 02:49:22;;;;;;;7.82;4.40;;;;;;;;;;5031228;28;20029;-65
2022/03/27 02:51:47;;;;;;;9.38;4.50;;;;;;;;;;5030554;28;20492;-65
2022/03/27 02:54:13;;;;;;;10.82;5.47;;;;;;;;;;5030757;28;20045;-65
2022/03/27 02:56:39;;;;;;;8.75;5.10;;;;;;;;;;5030653;28;20029;-65
2022/03/27 02:59:05;;;;;;;9.13;5.00;;;;;;;;;;5030513;28;20481;-65
2022/03/27 03:01:31;;;;;;;8.48;4.75;;;;;;;;;;5030402;28;20420;-65
2022/03/27 03:03:57;;;;;;;8.65;4.80;;;;;;;;;;5030305;28;20026;-65
2022/03/27 03:06:26;;;;;;;13.48;5.05;;;;;;;;;;5030737;28;20060;-67
2022/03/27 03:08:52;;;;;;;10.32;4.68;;;;;;;;;;5030290;28;20536;-65
2022/03/27 03:11:20;;;;;;;11.68;5.00;;;;;;;;;;5030472;28;20105;-65
2022/03/27 03:13:52;;;;;;;9.35;5.07;;;;;;;;;;5030250;28;20033;-65
2022/03/27 03:16:20;;;;;;;8.60;5.03;;;;;;;;;;5030482;28;20029;-66
2022/03/27 03:18:45;;;;;;;9.73;5.18;;;;;;;;;;5030002;28;20322;-65
2022/03/27 03:21:11;;;;;;;9.90;4.75;;;;;;;;;;5030430;28;20602;-65
2022/03/27 03:23:36;;;;;;;12.43;5.45;;;;;;;;;;5030241;28;20388;-65
2022/03/27 03:26:04;;;;;;;9.50;5.35;;;;;;;;;;5030482;28;20044;-65
2022/03/27 03:28:29;;;;;;;10.10;5.07;;;;;;;;;;5030239;28;20492;-65
2022/03/27 03:30:55;;;;;;;10.40;5.03;;;;;;;;;;5030361;28;20033;-65
2022/03/27 03:33:20;;;;;;;10.32;5.20;;;;;;;;;;5029894;28;20499;-65
2022/03/27 03:35:46;;;;;;;8.60;5.13;;;;;;;;;;5034083;28;20366;-65
2022/03/27 03:38:12;;;;;;;10.35;5.32;;;;;;;;;;5033996;28;20063;-65
2022/03/27 03:40:40;;;;;;;9.75;5.30;;;;;;;;;;5034235;28;20037;-65
2022/03/27 03:43:06;;;;;;;13.55;5.55;;;;;;;;;;5033932;28;20033;-65
2022/03/27 03:45:31;;;;;;;10.55;5.40;;;;;;;;;;5034308;28;20030;-65
2022/03/27 03:47:59;;;;;;;9.18;5.20;;;;;;;;;;5034014;28;20481;-65
2022/03/27 03:50:25;;;;;;;11.05;5.40;;;;;;;;;;5033797;28;20025;-65
2022/03/27 03:52:51;;;;;;;10.35;5.22;;;;;;;;;;5033689;28;20040;-66
2022/03/27 03:55:19;;;;;;;10.25;5.43;;;;;;;;;;5034141;28;20021;-65
2022/03/27 03:57:46;;;;;;;10.32;5.05;;;;;;;;;;5033429;28;20025;-65
2022/03/27 04:00:12;;;;;;;9.60;5.25;;;;;;;;;;5033900;28;20108;-65
2022/03/27 04:02:37;;;;;;;9.68;5.20;;;;;;;;;;5033659;28;20101;-65
2022/03/27 04:05:03;;;;;;;12.43;5.82;;;;;;;;;;5033416;28;20450;-65
2022/03/27 04:07:29;;;;;;;11.40;5.85;;;;;;;;;;5032474;28;20037;-65
2022/03/27 04:09:54;;;;;;;11.52;5.60;;;;;;;;;;5032329;28;20469;-65
2022/03/27 04:12:20;;;;;;;12.60;6.20;;;;;;;;;;5032235;28;20025;-65
2022/03/27 04:14:45;;;;;;;9.52;6.00;;;;;;;;;;5032360;28;20076;-65
2022/03/27 04:17:11;;;;;;;11.90;6.18;;;;;;;;;;5032301;28;20528;-65
2022/03/27 04:19:37;;;;;;;12.00;6.30;;;;;;;;;;5032183;28;20079;-65
2022/03/27 04:22:03;;;;;;;12.57;6.93;;;;;;;;;;5032194;28;20021;-65
2022/03/27 04:24:29;;;;;;;10.48;6.50;;;;;;;;;;5031945;28;20032;-65
2022/03/27 04:26:54;;;;;;;13.57;6.50;;;;;;;;;;5032111;28;20013;-65
2022/03/27 04:29:21;;;;;;;10.73;6.72;;;;;;;;;;5031943;28;20461;-65
2022/03/27 04:31:46;;;;;;;12.35;6.90;;;;;;;;;;5032123;28;20146;-65
2022/03/27 04:34:12;;;;;;;10.93;6.45;;;;;;;;;;5031898;28;20374;-65
2022/03/27 04:36:37;;;;;;;13.10;6.88;;;;;;;;;;5032166;28;20032;-65
2022/03/27 04:39:05;;;;;;;14.15;7.22;;;;;;;;;;5031905;28;20409;-65
2022/03/27 04:41:31;;;;;;;11.90;7.07;;;;;;;;;;5031761;28;20013;-65
2022/03/27 04:43:56;;;;;;;13.90;7.63;;;;;;;;;;5032042;28;20029;-65
2022/03/27 04:46:22;;;;;;;14.07;7.80;;;;;;;;;;5031600;28;20021;-65
2022/03/27 04:48:47;;;;;;;13.40;7.70;;;;;;;;;;5031683;28;20113;-65
2022/03/27 04:51:13;;;;;;;15.25;7.65;;;;;;;;;;5031801;28;20025;-65
2022/03/27 04:53:40;;;;;;;13.15;7.28;;;;;;;;;;5031679;28;20033;-64
2022/03/27 04:56:06;;;;;;;14.05;7.75;;;;;;;;;;5031634;28;20029;-65
2022/03/27 04:58:32;;;;;;;13.05;7.22;;;;;;;;;;5031567;28;20223;-65
2022/03/27 05:00:57;;;;;;;12.30;7.28;;;;;;;;;;5031424;28;20179;-65
2022/03/27 05:03:23;;;;;;;12.30;7.32;;;;;;;;;;5031297;28;20176;-65
2022/03/27 05:05:49;;;;;;;14.87;7.90;;;;;;;;;;4992199;28;1145073;-65
2022/03/27 05:08:14;;;;;;;14.30;7.82;;;;;;;;;;5032442;28;20042;-65
2022/03/27 05:10:40;;;;;;;13.68;7.75;;;;;;;;;;5032456;28;20064;-65
2022/03/27 05:13:06;;;;;;;15.50;7.68;;;;;;;;;;5032330;28;20072;-65
2022/03/27 05:15:31;;;;;;;13.02;7.70;;;;;;;;;;5032305;28;20021;-65
2022/03/27 05:17:58;;;;;;;17.35;8.00;;;;;;;;;;5032217;28;20025;-65
2022/03/27 05:20:29;;;;;;;15.25;8.45;;;;;;;;;;5031956;28;20532;-65
2022/03/27 05:22:56;;;;;;;16.40;8.35;;;;;;;;;;5032478;28;20147;-65
2022/03/27 05:25:22;;;;;;;14.75;8.15;;;;;;;;;;5031905;28;20489;-65
2022/03/27 05:27:56;;;;;;;15.23;7.82;;;;;;;;;;5032063;28;20029;-65
2022/03/27 05:30:25;;;;;;;16.30;8.98;;;;;;;;;;5031740;28;20024;-65
2022/03/27 05:32:53;;;;;;;14.98;8.48;;;;;;;;;;5031651;28;20031;-65
2022/03/27 05:35:20;;;;;;;16.50;8.77;;;;;;;;;;5031594;28;20148;-65
2022/03/27 05:37:46;;;;;;;15.38;8.35;;;;;;;;;;5031768;28;20036;-65
2022/03/27 05:40:14;;;;;;;14.40;8.40;;;;;;;;;;5031688;28;20104;-65
2022/03/27 05:42:40;;;;;;;15.13;8.57;;;;;;;;;;5031682;28;20018;-65
2022/03/27 05:45:07;;;;;;;17.00;8.73;;;;;;;;;;5031482;28;20036;-68
2022/03/27 05:47:34;;;;;;;17.42;8.85;;;;;;;;;;5031569;28;20424;-65
2022/03/27 05:49:59;;;;;;;14.90;8.77;;;;;;;;;;5031153;28;20032;-65
2022/03/27 05:52:25;;;;;;;14.52;8.52;;;;;;;;;;5031440;28;20033;-65
2022/03/27 05:54:51;;;;;;;15.15;9.00;;;;;;;;;;5031362;28;20100;-65
2022/03/27 05:57:20;;;;;;;15.20;9.00;;;;;;;;;;5030710;28;20030;-65
2022/03/27 05:59:47;;;;;;;17.23;8.85;;;;;;;;;;5031291;28;20064;-65
2022/03/27 06:02:13;;;;;;;15.02;8.82;;;;;;;;;;5031217;28;20602;-65
2022/03/27 06:04:39;;;;;;;16.75;8.73;;;;;;;;;;5031033;28;20588;-65
2022/03/27 06:07:05;;;;;;;21.73;9.82;;;;;;;;;;5031427;28;20041;-65
2022/03/27 06:09:32;;;;;;;18.35;9.43;;;;;;;;;;5031232;28;20106;-65
2022/03/27 06:11:58;;;;;;;16.60;9.07;;;;;;;;;;5031200;28;20051;-65
2022/03/27 06:14:23;;;;;;;15.48;8.73;;;;;;;;;;5031093;28;20022;-65
2022/03/27 06:16:49;;;;;;;19.50;9.63;;;;;;;;;;5031688;28;20373;-65
2022/03/27 06:19:14;;;;;;;16.02;9.50;;;;;;;;;;5031397;28;20029;-65
2022/03/27 06:21:40;;;;;;;17.45;9.65;;;;;;;;;;5031052;28;20041;-65
2022/03/27 06:24:05;;;;;;;17.92;9.40;;;;;;;;;;5031294;28;20022;-64
2022/03/27 06:26:31;;;;;;;23.67;9.80;;;;;;;;;;5030990;28;20076;-65
2022/03/27 06:28:56;;;;;;;16.83;9.77;;;;;;;;;;5031004;28;20053;-65
2022/03/27 06:31:22;;;;;;;17.38;9.52;;;;;;;;;;5030927;28;20040;-65
2022/03/27 06:33:47;;;;;;;16.98;9.80;;;;;;;;;;5030916;28;20021;-65
2022/03/27 06:36:13;;;;;;;21.17;10.07;;;;;;;;;;5030743;28;20413;-65
2022/03/27 06:38:38;;;;;;;17.48;9.35;;;;;;;;;;5031019;28;20025;-65
2022/03/27 06:41:06;;;;;;;18.55;10.10;;;;;;;;;;5030702;28;20469;-65
2022/03/27 06:43:32;;;;;;;21.08;10.27;;;;;;;;;;5030787;28;20109;-65
2022/03/27 06:45:57;;;;;;;17.10;9.65;;;;;;;;;;5030482;28;20108;-64
2022/03/27 06:48:23;;;;;;;20.35;10.15;;;;;;;;;;5030707;28;20032;-65
2022/03/27 06:50:50;;;;;;;20.10;9.45;;;;;;;;;;5030501;28;20556;-64
2022/03/27 06:53:20;;;;;;;17.00;9.48;;;;;;;;;;5030488;28;20036;-65
2022/03/27 06:55:46;;;;;;;17.00;9.48;;;;;;;;;;5030529;28;20052;-65
2022/03/27 06:58:12;;;;;;;18.30;9.95;;;;;;;;;;5030603;28;20034;-65
2022/03/27 07:03:21;;;;;;;18.98;10.05;;;;;;;;;;5030481;28;20079;-65
2022/03/27 07:05:47;;;;;;;19.70;9.48;;;;;;;;;;5030301;28;20440;-65
2022/03/27 07:08:15;;;;;;;17.67;9.82;;;;;;;;;;5030572;28;20036;-65
2022/03/27 07:10:42;;;;;;;19.63;9.68;;;;;;;;;;5030352;28;20022;-65
2022/03/27 07:13:09;;;;;;;19.08;10.05;;;;;;;;;;5030293;28;20037;-65
2022/03/27 07:15:38;;;;;;;20.05;10.65;;;;;;;;;;5030033;28;20036;-65
2022/03/27 07:18:05;;;;;;;24.90;10.65;;;;;;;;;;5030095;28;20041;-65
2022/03/27 07:20:32;;;;;;;18.05;10.02;;;;;;;;;;5029900;28;20075;-65
2022/03/27 07:23:05;;;;;;;19.38;10.80;;;;;;;;;;5030062;28;20025;-65
2022/03/27 07:25:35;;;;;;;24.75;10.98;;;;;;;;;;5030040;28;20025;-65
2022/03/27 07:28:03;;;;;;;18.10;11.13;;;;;;;;;;5030230;28;20026;-65
2022/03/27 07:30:30;;;;;;;20.55;10.98;;;;;;;;;;5030041;28;20496;-65
2022/03/27 07:32:55;;;;;;;20.48;11.15;;;;;;;;;;5029795;28;20061;-65
2022/03/27 07:35:21;;;;;;;26.50;11.88;;;;;;;;;;5029947;28;20061;-65
2022/03/27 07:37:47;;;;;;;25.17;12.25;;;;;;;;;;5030144;28;20408;-65
2022/03/27 07:40:14;;;;;;;22.17;11.35;;;;;;;;;;5030025;28;20033;-65
2022/03/27 07:42:43;;;;;;;23.55;11.32;;;;;;;;;;5030020;28;20104;-65
2022/03/27 07:45:11;;;;;;;22.25;11.85;;;;;;;;;;5029812;28;20029;-65
2022/03/27 07:47:37;;;;;;;21.60;10.90;;;;;;;;;;5030177;28;20021;-65
2022/03/27 07:50:04;;;;;;;21.17;11.30;;;;;;;;;;5030025;28;20030;-65
2022/03/27 07:52:29;;;;;;;19.27;11.38;;;;;;;;;;5029817;28;20646;-65
2022/03/27 07:54:55;;;;;;;22.40;11.43;;;;;;;;;;5028624;28;20187;-65
2022/03/27 07:57:20;;;;;;;20.40;11.23;;;;;;;;;;5029907;28;20029;-65
2022/03/27 07:59:47;;;;;;;21.05;11.43;;;;;;;;;;5030097;28;20017;-65
2022/03/27 08:02:13;;;;;;;21.48;11.13;;;;;;;;;;5029575;28;20022;-65
2022/03/27 08:04:39;;;;;;;23.70;11.48;;;;;;;;;;5029881;28;20400;-66
2022/03/27 08:07:04;;;;;;;22.70;11.35;;;;;;;;;;5029678;28;20469;-65
2022/03/27 08:09:30;;;;;;;21.15;11.27;;;;;;;;;;5029935;28;20032;-65
2022/03/27 08:11:55;;;;;;;21.20;11.32;;;;;;;;;;5029380;28;20397;-65
2022/03/27 08:14:21;;;;;;;21.85;11.30;;;;;;;;;;5030018;28;20053;-65
2022/03/27 08:16:46;;;;;;;21.33;10.93;;;;;;;;;;5029970;28;20033;-65
2022/03/27 08:19:12;;;;;;;21.83;10.85;;;;;;;;;;5029839;28;20506;-65
2022/03/27 08:21:39;;;;;;;23.20;10.57;;;;;;;;;;5033172;28;20026;-65
2022/03/27 08:24:05;;;;;;;20.02;10.63;;;;;;;;;;5033699;28;20060;-65
2022/03/27 08:29:14;;;;;;;19.20;10.40;;;;;;;;;;5033375;28;20313;-65
2022/03/27 08:31:40;;;;;;;19.10;10.15;;;;;;;;;;5033123;28;20068;-65
2022/03/27 08:34:05;;;;;;;23.38;10.23;;;;;;;;;;5032958;28;20061;-65
2022/03/27 08:36:31;;;;;;;17.73;9.70;;;;;;;;;;5032976;28;20595;-65
2022/03/27 08:38:56;;;;;;;17.90;9.85;;;;;;;;;;5033153;28;20021;-65
2022/03/27 08:41:22;;;;;;;20.08;10.75;;;;;;;;;;5032761;28;20438;-65
2022/03/27 08:43:49;;;;;;;21.77;10.00;;;;;;;;;;5032698;28;20025;-65
2022/03/27 08:46:16;;;;;;;20.50;10.30;;;;;;;;;;5033113;28;20064;-65
2022/03/27 08:48:44;;;;;;;17.90;10.02;;;;;;;;;;5032841;28;20033;-65
2022/03/27 08:51:26;;;;;;;18.00;9.43;;;;;;;;;;5032740;28;20034;-65
2022/03/27 08:54:13;;;;;;;17.77;9.65;;;;;;;;;;5032780;28;20029;-66
2022/03/27 08:56:39;;;;;;;17.98;9.63;;;;;;;;;;5032529;28;20065;-65
2022/03/27 08:59:10;;;;;;;16.08;9.35;;;;;;;;;;5032844;28;20458;-65
2022/03/27 09:01:37;;;;;;;15.45;8.68;;;;;;;;;;5032562;28;20087;-65
2022/03/27 09:04:04;;;;;;;15.18;8.90;;;;;;;;;;5032372;28;20029;-65
2022/03/27 09:06:29;;;;;;;16.17;8.70;;;;;;;;;;5032441;28;20057;-65
2022/03/27 09:08:55;;;;;;;15.63;8.70;;;;;;;;;;5032590;28;20099;-65
2022/03/27 09:11:21;;;;;;;16.60;8.30;;;;;;;;;;5032374;28;20477;-65
2022/03/27 09:13:50;;;;;;;17.77;8.88;;;;;;;;;;5032366;28;20109;-65
2022/03/27 09:16:17;;;;;;;19.90;8.63;;;;;;;;;;5032049;28;20028;-65
2022/03/27 09:18:55;;;;;;;18.83;9.93;;;;;;;;;;5030835;28;20448;-65
2022/03/27 09:21:26;;;;;;;18.20;10.57;;;;;;;;;;5032340;28;20048;-65
2022/03/27 09:23:58;;;;;;;21.17;10.40;;;;;;;;;;5032140;28;20021;-65
2022/03/27 09:26:24;;;;;;;18.65;10.35;;;;;;;;;;5031963;28;20021;-65
2022/03/27 09:28:52;;;;;;;17.20;10.50;;;;;;;;;;5032197;28;20043;-65
2022/03/27 09:31:18;;;;;;;18.33;10.23;;;;;;;;;;5030758;28;20377;-65
2022/03/27 09:33:54;;;;;;;18.77;10.68;;;;;;;;;;5031518;28;20542;-65
2022/03/27 09:36:29;;;;;;;17.13;10.30;;;;;;;;;;5031920;28;20519;-65
2022/03/27 09:39:20;;;;;;;18.30;10.60;;;;;;;;;;5032062;28;20512;-65
2022/03/27 09:41:51;;;;;;;15.68;9.52;;;;;;;;;;5031662;28;20480;-65
2022/03/27 09:44:42;;;;;;;17.88;10.45;;;;;;;;;;5031744;28;20496;-69
2022/03/27 09:47:11;;;;;;;17.35;9.68;;;;;;;;;;5031575;28;20029;-65
2022/03/27 09:49:46;;;;;;;18.02;9.23;;;;;;;;;;5031713;28;20084;-65
2022/03/27 09:52:20;;;;;;;16.73;10.27;;;;;;;;;;5031499;28;20508;-65
2022/03/27 09:54:58;;;;;;;17.83;9.75;;;;;;;;;;5031450;28;20399;-65
2022/03/27 09:57:30;;;;;;;21.67;10.77;;;;;;;;;;5031280;28;20477;-68
2022/03/27 09:59:58;;;;;;;15.40;10.30;;;;;;;;;;5031496;28;20036;-65
2022/03/27 10:02:25;;;;;;;19.33;11.98;;;;;;;;;;5031039;28;20079;-65
2022/03/27 10:04:57;;;;;;;18.75;11.60;;;;;;;;;;5031276;28;20025;-65
2022/03/27 10:07:25;;;;;;;19.88;11.20;;;;;;;;;;5031253;28;20029;-65
2022/03/27 10:09:54;;;;;;;21.42;11.27;;;;;;;;;;5031164;28;20018;-68
2022/03/27 10:12:28;;;;;;;18.65;11.80;;;;;;;;;;5031158;28;20026;-65
2022/03/27 10:15:03;;;;;;;25.60;12.07;;;;;;;;;;5031151;28;20026;-66
2022/03/27 10:17:32;;;;;;;19.65;12.68;;;;;;;;;;5031142;28;20116;-65
2022/03/27 10:20:03;;;;;;;18.45;11.50;;;;;;;;;;5031000;28;20021;-65
2022/03/27 10:22:29;;;;;;;24.40;12.85;;;;;;;;;;5030821;28;20017;-65
2022/03/27 10:24:56;;;;;;;21.65;12.55;;;;;;;;;;5030809;28;20017;-65
2022/03/27 10:27:22;;;;;;;21.10;12.25;;;;;;;;;;5030665;28;20550;-65
2022/03/27 10:29:48;;;;;;;20.73;12.10;;;;;;;;;;5030983;28;20022;-65
2022/03/27 10:32:14;;;;;;;22.42;12.90;;;;;;;;;;5030716;28;20028;-65
2022/03/27 10:34:54;;;;;;;24.25;13.40;;;;;;;;;;5030801;28;20552;-65
2022/03/27 10:37:31;;;;;;;24.90;13.07;;;;;;;;;;5030584;28;20043;-65
2022/03/27 10:40:18;;;;;;;23.88;12.60;;;;;;;;;;5030778;28;20021;-65
2022/03/27 10:42:51;;;;;;;21.52;12.93;;;;;;;;;;5030259;28;20268;-65
2022/03/27 10:45:19;;;;;;;20.25;12.65;;;;;;;;;;5030664;28;20447;-65
2022/03/27 10:48:11;;;;;;;25.92;13.63;;;;;;;;;;5030875;28;20431;-65
2022/03/27 10:50:49;;;;;;;24.15;13.13;;;;;;;;;;5030787;28;20064;-66
2022/03/27 10:53:15;;;;;;;23.73;13.00;;;;;;;;;;5030295;28;20370;-65
2022/03/27 10:55:46;;;;;;;22.45;12.98;;;;;;;;;;5030705;28;20049;-65
2022/03/27 10:58:40;;;;;;;22.45;12.52;;;;;;;;;;5030221;28;20400;-65
2022/03/27 11:01:21;;;;;;;21.63;12.85;;;;;;;;;;5030921;28;20485;-65
2022/03/27 11:03:49;;;;;;;19.00;12.38;;;;;;;;;;5030052;28;20029;-65
2022/03/27 11:06:42;;;;;;;23.00;13.05;;;;;;;;;;5030339;28;20084;-65
2022/03/27 11:09:09;;;;;;;26.38;13.55;;;;;;;;;;5030824;28;20022;-65
2022/03/27 11:11:38;;;;;;;22.15;12.60;;;;;;;;;;5030619;28;20071;-65
2022/03/27 11:14:05;;;;;;;21.50;12.40;;;;;;;;;;5030163;28;20083;-65
2022/03/27 11:16:33;;;;;;;21.92;12.57;;;;;;;;;;5028951;28;20439;-65
2022/03/27 11:18:59;;;;;;;20.45;12.13;;;;;;;;;;5029988;28;20064;-65
2022/03/27 11:21:27;;;;;;;20.50;12.35;;;;;;;;;;5030439;28;20113;-65
2022/03/27 11:24:19;;;;;;;23.40;12.00;;;;;;;;;;5030067;28;20025;-66
2022/03/27 11:26:44;;;;;;;19.67;11.75;;;;;;;;;;5022134;28;20060;-65
2022/03/27 11:29:25;;;;;;;19.73;11.57;;;;;;;;;;5030462;28;20029;-65
2022/03/27 11:32:23;;;;;;;26.65;14.43;;;;;;;;;;5030135;28;20548;-65
2022/03/27 11:35:13;;;;;;;19.85;11.82;;;;;;;;;;4996164;28;20050;-65
2022/03/27 11:37:38;;;;;;;21.50;12.23;;;;;;;;;;5029982;28;20108;-65
2022/03/27 11:40:24;;;;;;;22.10;13.57;;;;;;;;;;5030080;28;20161;-65
2022/03/27 11:42:49;;;;;;;22.08;12.77;;;;;;;;;;5029842;28;20226;-65
2022/03/27 11:45:21;;;;;;;20.73;12.07;;;;;;;;;;5029970;28;20014;-65
2022/03/27 11:47:55;;;;;;;17.70;11.38;;;;;;;;;;5029947;28;20525;-65
2022/03/27 11:50:28;;;;;;;19.80;11.32;;;;;;;;;;5029952;28;20063;-66
2022/03/27 11:52:55;;;;;;;15.35;10.32;;;;;;;;;;5029777;28;20029;-65
2022/03/27 11:55:21;;;;;;;16.15;10.57;;;;;;;;;;5031536;28;20543;-65
2022/03/27 11:57:47;;;;;;;18.02;11.00;;;;;;;;;;5033719;28;20124;-65
2022/03/27 12:00:15;;;;;;;18.80;11.25;;;;;;;;;;5033807;28;20029;-65
2022/03/27 12:02:43;;;;;;;18.30;10.88;;;;;;;;;;5033685;28;20039;-65
2022/03/27 12:05:10;;;;;;;19.95;12.18;;;;;;;;;;5033278;28;20092;-65
2022/03/27 12:08:08;;;;;;;22.00;11.60;;;;;;;;;;5032478;28;20033;-65
2022/03/27 12:10:49;;;;;;;24.83;12.00;;;;;;;;;;4999903;28;20489;-66
2022/03/27 12:13:15;;;;;;;17.85;11.73;;;;;;;;;;5033561;28;20083;-65
2022/03/27 12:15:49;;;;;;;24.30;12.63;;;;;;;;;;5033476;28;20025;-65
2022/03/27 12:18:36;;;;;;;22.45;13.43;;;;;;;;;;5033169;28;20037;-65
2022/03/27 12:21:06;;;;;;;21.58;11.85;;;;;;;;;;5033540;28;20119;-65
2022/03/27 12:23:34;;;;;;;17.83;11.63;;;;;;;;;;5033024;28;20071;-65
2022/03/27 12:31:55;;;;;;;18.08;11.30;;;;;;;;;;5033385;28;20052;-65
2022/03/27 12:34:21;;;;;;;16.88;10.65;;;;;;;;;;5032846;28;20021;-65
2022/03/27 12:37:10;;;;;;;20.20;11.30;;;;;;;;;;5033404;28;20044;-65
2022/03/27 12:40:02;;;;;;;17.23;10.85;;;;;;;;;;5032832;28;20049;-65
2022/03/27 12:42:39;;;;;;;18.73;11.48;;;;;;;;;;5032761;28;20017;-65
2022/03/27 12:45:18;;;;;;;17.70;10.80;;;;;;;;;;5032443;28;20031;-65
2022/03/27 12:47:50;;;;;;;17.05;11.02;;;;;;;;;;5033015;28;20022;-65
2022/03/27 12:50:27;;;;;;;19.90;11.27;;;;;;;;;;5032632;28;20033;-65
2022/03/27 12:53:13;;;;;;;18.92;11.38;;;;;;;;;;5032682;28;20021;-65
2022/03/27 12:55:43;;;;;;;21.55;11.35;;;;;;;;;;5032687;28;20032;-65
2022/03/27 12:58:09;;;;;;;17.63;10.25;;;;;;;;;;5032646;28;20162;-65
2022/03/27 13:00:35;;;;;;;18.75;10.88;;;;;;;;;;5032487;28;20542;-65
2022/03/27 13:03:19;;;;;;;20.00;10.95;;;;;;;;;;5032541;28;20025;-65
2022/03/27 13:05:53;;;;;;;17.88;10.55;;;;;;;;;;5031800;28;20677;-65
2022/03/27 13:08:55;;;;;;;19.13;10.40;;;;;;;;;;5032389;28;20504;-65
2022/03/27 13:11:22;;;;;;;18.13;10.70;;;;;;;;;;5032742;28;20029;-65
2022/03/27 13:13:56;;;;;;;17.98;10.35;;;;;;;;;;5031959;28;20061;-65
2022/03/27 13:16:23;;;;;;;16.65;10.27;;;;;;;;;;5032247;28;20156;-71
2022/03/27 13:19:11;;;;;;;15.73;9.88;;;;;;;;;;5031787;28;20029;-66
2022/03/27 13:21:47;;;;;;;18.73;10.48;;;;;;;;;;5032060;28;20026;-68
2022/03/27 13:24:13;;;;;;;18.05;9.93;;;;;;;;;;5031763;28;20091;-65
2022/03/27 13:26:41;;;;;;;16.40;10.27;;;;;;;;;;5032426;28;20041;-65
2022/03/27 13:29:07;;;;;;;16.17;9.82;;;;;;;;;;5032020;28;20096;-65
2022/03/27 13:31:35;;;;;;;18.33;10.40;;;;;;;;;;5032195;28;20109;-67
2022/03/27 13:34:02;;;;;;;21.00;10.65;;;;;;;;;;5031921;28;20445;-65
2022/03/27 13:36:30;;;;;;;17.20;10.18;;;;;;;;;;5031996;28;20489;-65
2022/03/27 13:38:56;;;;;;;16.98;10.10;;;;;;;;;;5031892;28;20021;-65
2022/03/27 13:44:05;;;;;;;15.60;9.73;;;;;;;;;;5031970;28;20060;-65
2022/03/27 13:46:31;;;;;;;18.10;9.52;;;;;;;;;;5031668;28;20053;-65
2022/03/27 13:48:57;;;;;;;14.65;9.57;;;;;;;;;;5031547;28;20084;-65
2022/03/27 13:51:23;;;;;;;16.67;10.38;;;;;;;;;;5031669;28;20022;-65
2022/03/27 13:53:48;;;;;;;17.75;9.85;;;;;;;;;;5031528;28;20025;-65
2022/03/27 13:56:14;;;;;;;18.13;9.75;;;;;;;;;;5031458;28;20021;-65
2022/03/27 13:58:39;;;;;;;16.90;9.05;;;;;;;;;;5031663;28;20025;-66
2022/03/27 14:01:05;;;;;;;14.88;9.48;;;;;;;;;;5031366;28;20021;-65
2022/03/27 14:03:31;;;;;;;15.32;9.10;;;;;;;;;;5031414;28;20029;-65
2022/03/27 14:05:57;;;;;;;13.95;8.35;;;;;;;;;;5030875;28;20053;-65
2022/03/27 14:08:24;;;;;;;19.15;8.25;;;;;;;;;;5031345;28;20048;-65
2022/03/27 14:10:49;;;;;;;13.70;8.38;;;;;;;;;;5031581;28;20048;-65
2022/03/27 14:13:16;;;;;;;16.05;8.60;;;;;;;;;;5031431;28;20378;-65
2022/03/27 14:15:42;;;;;;;14.52;8.32;;;;;;;;;;5030813;28;20722;-65
2022/03/27 14:18:07;;;;;;;22.27;8.20;;;;;;;;;;5030306;28;20036;-65
2022/03/27 14:20:33;;;;;;;13.73;7.80;;;;;;;;;;5030752;28;20029;-65
2022/03/27 14:22:59;;;;;;;14.68;8.02;;;;;;;;;;5030984;28;20025;-65
2022/03/27 14:25:26;;;;;;;13.30;7.35;;;;;;;;;;5030571;28;20030;-65
2022/03/27 14:27:52;;;;;;;10.75;6.63;;;;;;;;;;5030883;28;20028;-65
2022/03/27 14:30:17;;;;;;;10.15;6.45;;;;;;;;;;5030859;28;20022;-65
2022/03/27 14:32:44;;;;;;;10.68;6.85;;;;;;;;;;5030793;28;20032;-65
2022/03/27 14:35:11;;;;;;;10.93;6.47;;;;;;;;;;5030446;28;20025;-65
2022/03/27 14:37:36;;;;;;;13.27;6.78;;;;;;;;;;5030916;28;20061;-65
2022/03/27 14:40:07;;;;;;;13.75;6.13;;;;;;;;;;5030545;28;20057;-65
2022/03/27 14:42:33;;;;;;;15.15;6.38;;;;;;;;;;5030727;28;20103;-65
2022/03/27 14:44:59;;;;;;;13.80;6.50;;;;;;;;;;5030320;28;20045;-66
2022/03/27 14:47:27;;;;;;;15.10;6.43;;;;;;;;;;5030573;28;20033;-65
2022/03/27 14:49:53;;;;;;;13.60;6.63;;;;;;;;;;5030374;28;20025;-65